Wetterdaten: Sonntag, 13.06.2010
Datum Zeit Temp. A. Feuchte A. Luftdruck Regen Wind Richtung Richtung Sonnenschein UV Solar Windben
13.06.2010 00:00 12,0 C 81 % 1013,0 hPa 0,0 mm 0,0 km/h (0 Bft) W-NW 292 0 min 0 UV-I 0 W/m 3,0 km/h (1 Bft)
13.06.2010 00:10 11,0 C 82 % 1013,0 hPa 0,0 mm 0,0 km/h (0 Bft) W-NW 292 0 min 0 UV-I 0 W/m 1,0 km/h (0 Bft)
13.06.2010 00:20 11,0 C 83 % 1013,1 hPa 0,0 mm 0,0 km/h (0 Bft) W-NW 292 0 min 0 UV-I 0 W/m 1,0 km/h (0 Bft)
13.06.2010 00:30 11,0 C 83 % 1013,1 hPa 0,0 mm 0,0 km/h (0 Bft) W-NW 292 0 min 0 UV-I 0 W/m 3,0 km/h (1 Bft)
13.06.2010 00:40 11,0 C 82 % 1013,2 hPa 0,0 mm 0,0 km/h (0 Bft) W-NW 292 0 min 0 UV-I 0 W/m 4,0 km/h (1 Bft)
13.06.2010 00:50 11,0 C 83 % 1013,8 hPa 0,0 mm 0,0 km/h (0 Bft) W-NW 292 0 min 0 UV-I 0 W/m 3,0 km/h (1 Bft)
13.06.2010 01:00 11,0 C 82 % 1013,5 hPa 0,0 mm 0,0 km/h (0 Bft) W-NW 292 0 min 0 UV-I 0 W/m 3,0 km/h (1 Bft)
13.06.2010 01:10 11,0 C 81 % 1013,5 hPa 0,0 mm 1,0 km/h (0 Bft) W-NW 292 0 min 0 UV-I 0 W/m 6,0 km/h (2 Bft)
13.06.2010 01:20 11,0 C 81 % 1013,6 hPa 0,0 mm 1,0 km/h (0 Bft) W 270 0 min 0 UV-I 0 W/m 6,0 km/h (2 Bft)
13.06.2010 01:30 10,0 C 81 % 1013,6 hPa 0,0 mm 1,0 km/h (0 Bft) W-NW 292 0 min 0 UV-I 0 W/m 4,0 km/h (1 Bft)
13.06.2010 01:40 10,0 C 80 % 1014,0 hPa 0,0 mm 3,0 km/h (1 Bft) W-NW 292 0 min 0 UV-I 0 W/m 9,0 km/h (2 Bft)
13.06.2010 01:50 10,0 C 81 % 1014,0 hPa 0,0 mm 0,0 km/h (0 Bft) W-NW 292 0 min 0 UV-I 0 W/m 4,0 km/h (1 Bft)
13.06.2010 02:00 10,0 C 81 % 1014,0 hPa 0,0 mm 0,0 km/h (0 Bft) W-NW 292 0 min 0 UV-I 0 W/m 1,0 km/h (0 Bft)
13.06.2010 02:10 10,0 C 83 % 1013,6 hPa 0,0 mm 0,0 km/h (0 Bft) W-NW 292 0 min 0 UV-I 0 W/m 3,0 km/h (1 Bft)
13.06.2010 02:20 10,0 C 84 % 1014,0 hPa 0,0 mm 0,0 km/h (0 Bft) W-NW 292 0 min 0 UV-I 0 W/m 4,0 km/h (1 Bft)
13.06.2010 02:30 10,0 C 84 % 1014,2 hPa 0,0 mm 0,0 km/h (0 Bft) W-NW 292 0 min 0 UV-I 0 W/m 1,0 km/h (0 Bft)
13.06.2010 02:40 9,0 C 84 % 1015,0 hPa 0,0 mm 0,0 km/h (0 Bft) W-NW 292 0 min 0 UV-I 0 W/m 1,0 km/h (0 Bft)
13.06.2010 02:50 9,0 C 85 % 1015,1 hPa 0,0 mm 0,0 km/h (0 Bft) W-NW 292 0 min 0 UV-I 0 W/m 4,0 km/h (1 Bft)
13.06.2010 03:00 9,0 C 85 % 1015,2 hPa 0,0 mm 0,0 km/h (0 Bft) W-NW 292 0 min 0 UV-I 0 W/m 3,0 km/h (1 Bft)
13.06.2010 03:10 9,0 C 86 % 1015,2 hPa 0,0 mm 0,0 km/h (0 Bft) W-NW 292 0 min 0 UV-I 0 W/m 1,0 km/h (0 Bft)
13.06.2010 03:20 9,0 C 87 % 1015,2 hPa 0,0 mm 0,0 km/h (0 Bft) W-NW 292 0 min 0 UV-I 0 W/m 1,0 km/h (0 Bft)
13.06.2010 03:30 8,0 C 87 % 1015,2 hPa 0,0 mm 0,0 km/h (0 Bft) W-NW 292 0 min 0 UV-I 0 W/m 1,0 km/h (0 Bft)
13.06.2010 03:40 8,0 C 88 % 1015,1 hPa 0,0 mm 0,0 km/h (0 Bft) W-NW 292 0 min 0 UV-I 0 W/m 3,0 km/h (1 Bft)
13.06.2010 03:50 8,0 C 88 % 1015,1 hPa 0,0 mm 0,0 km/h (0 Bft) W-NW 292 0 min 0 UV-I 0 W/m 1,0 km/h (0 Bft)
13.06.2010 04:00 8,0 C 88 % 1015,1 hPa 0,0 mm 0,0 km/h (0 Bft) W-NW 292 0 min 0 UV-I 0 W/m 1,0 km/h (0 Bft)
13.06.2010 04:10 8,0 C 89 % 1015,2 hPa 0,0 mm 0,0 km/h (0 Bft) W-NW 292 0 min 0 UV-I 0 W/m 3,0 km/h (1 Bft)
13.06.2010 04:20 8,0 C 89 % 1015,2 hPa 0,0 mm 0,0 km/h (0 Bft) W-NW 292 0 min 0 UV-I 0 W/m 1,0 km/h (0 Bft)
13.06.2010 04:30 8,0 C 89 % 1015,2 hPa 0,0 mm 0,0 km/h (0 Bft) W-NW 292 0 min 0 UV-I 0 W/m 1,0 km/h (0 Bft)
13.06.2010 04:40 8,0 C 90 % 1015,1 hPa 0,0 mm 0,0 km/h (0 Bft) W-NW 292 0 min 0 UV-I 0 W/m 3,0 km/h (1 Bft)
13.06.2010 04:50 8,0 C 90 % 1015,3 hPa 0,0 mm 0,0 km/h (0 Bft) W-NW 292 0 min 0 UV-I 0 W/m 4,0 km/h (1 Bft)
13.06.2010 05:00 8,0 C 90 % 1015,3 hPa 0,0 mm 0,0 km/h (0 Bft) W-NW 292 0 min 0 UV-I 0 W/m 4,0 km/h (1 Bft)
13.06.2010 05:10 7,0 C 90 % 1015,3 hPa 0,0 mm 0,0 km/h (0 Bft) W-NW 292 0 min 0 UV-I 0 W/m 3,0 km/h (1 Bft)
13.06.2010 05:20 7,0 C 90 % 1015,0 hPa 0,0 mm 0,0 km/h (0 Bft) W-NW 292 0 min 0 UV-I 5 W/m 1,0 km/h (0 Bft)
13.06.2010 05:30 7,0 C 90 % 1015,0 hPa 0,0 mm 0,0 km/h (0 Bft) W-NW 292 0 min 0 UV-I 11 W/m 1,0 km/h (0 Bft)
13.06.2010 05:40 7,0 C 91 % 1015,4 hPa 0,0 mm 0,0 km/h (0 Bft) W-NW 292 0 min 0 UV-I 14 W/m 3,0 km/h (1 Bft)
13.06.2010 05:50 7,0 C 91 % 1015,1 hPa 0,0 mm 0,0 km/h (0 Bft) W-NW 292 0 min 0 UV-I 18 W/m 4,0 km/h (1 Bft)
13.06.2010 06:00 7,0 C 91 % 1015,0 hPa 0,0 mm 0,0 km/h (0 Bft) W 270 0 min 0 UV-I 19 W/m 1,0 km/h (0 Bft)
13.06.2010 06:10 7,0 C 91 % 1015,0 hPa 0,0 mm 0,0 km/h (0 Bft) W 270 0 min 0 UV-I 21 W/m 1,0 km/h (0 Bft)
13.06.2010 06:20 7,0 C 91 % 1015,0 hPa 0,0 mm 0,0 km/h (0 Bft) W-NW 292 0 min 0 UV-I 23 W/m 1,0 km/h (0 Bft)
13.06.2010 06:30 7,0 C 91 % 1015,0 hPa 0,0 mm 0,0 km/h (0 Bft) W-NW 292 0 min 0 UV-I 35 W/m 1,0 km/h (0 Bft)
13.06.2010 06:40 7,0 C 91 % 1014,7 hPa 0,0 mm 0,0 km/h (0 Bft) W 270 0 min 0 UV-I 53 W/m 1,0 km/h (0 Bft)
13.06.2010 06:50 8,0 C 92 % 1015,0 hPa 0,0 mm 0,0 km/h (0 Bft) W-NW 292 10 min 1 UV-I 171 W/m 1,0 km/h (0 Bft)
13.06.2010 07:00 8,0 C 96 % 1015,2 hPa 0,0 mm 0,0 km/h (0 Bft) W 270 10 min 1 UV-I 171 W/m 1,0 km/h (0 Bft)
13.06.2010 07:10 9,0 C 91 % 1016,0 hPa 0,0 mm 0,0 km/h (0 Bft) W-NW 292 0 min 1 UV-I 116 W/m 1,0 km/h (0 Bft)
13.06.2010 07:20 9,0 C 90 % 1016,5 hPa 0,0 mm 0,0 km/h (0 Bft) W-NW 292 10 min 1 UV-I 163 W/m 1,0 km/h (0 Bft)
13.06.2010 07:30 9,0 C 90 % 1016,4 hPa 0,0 mm 0,0 km/h (0 Bft) W-NW 292 0 min 1 UV-I 137 W/m 1,0 km/h (0 Bft)
13.06.2010 07:40 10,0 C 89 % 1016,6 hPa 0,0 mm 0,0 km/h (0 Bft) W 270 0 min 1 UV-I 155 W/m 3,0 km/h (1 Bft)
13.06.2010 07:50 10,0 C 88 % 1016,6 hPa 0,0 mm 0,0 km/h (0 Bft) W 270 0 min 1 UV-I 146 W/m 3,0 km/h (1 Bft)
13.06.2010 08:00 10,0 C 88 % 1016,5 hPa 0,0 mm 0,1 km/h (0 Bft) W 276 0 min 1 UV-I 169 W/m 1,0 km/h (0 Bft)
13.06.2010 08:10 10,0 C 87 % 1016,5 hPa 0,0 mm 0,0 km/h (0 Bft) W 270 10 min 1 UV-I 243 W/m 3,0 km/h (1 Bft)
13.06.2010 08:20 10,0 C 87 % 1016,6 hPa 0,0 mm 0,0 km/h (0 Bft) W 270 0 min 1 UV-I 213 W/m 3,0 km/h (1 Bft)
13.06.2010 08:30 11,0 C 86 % 1016,6 hPa 0,0 mm 0,0 km/h (0 Bft) W-SW 247 0 min 1 UV-I 165 W/m 4,0 km/h (1 Bft)
13.06.2010 08:40 11,0 C 85 % 1016,7 hPa 0,0 mm 0,0 km/h (0 Bft) W-SW 247 0 min 1 UV-I 156 W/m 6,0 km/h (2 Bft)
13.06.2010 08:50 11,0 C 84 % 1016,7 hPa 0,0 mm 1,0 km/h (0 Bft) W-SW 247 0 min 1 UV-I 172 W/m 4,0 km/h (1 Bft)
13.06.2010 09:00 11,0 C 84 % 1016,8 hPa 0,0 mm 1,0 km/h (0 Bft) W-SW 247 0 min 1 UV-I 214 W/m 8,0 km/h (2 Bft)
13.06.2010 09:10 11,5 C 84 % 1016,9 hPa 0,0 mm 0,0 km/h (0 Bft) W-SW 247 0 min 1 UV-I 199 W/m 6,4 km/h (2 Bft)
13.06.2010 09:20 11,9 C 81 % 1017,0 hPa 0,0 mm 0,0 km/h (0 Bft) W-SW 247 0 min 2 UV-I 265 W/m 3,2 km/h (1 Bft)
13.06.2010 09:30 11,9 C 79 % 1016,9 hPa 0,0 mm 1,6 km/h (1 Bft) W 270 0 min 2 UV-I 287 W/m 8,0 km/h (2 Bft)
13.06.2010 09:40 12,3 C 79 % 1016,7 hPa 0,0 mm 1,6 km/h (1 Bft) W-SW 247 10 min 3 UV-I 401 W/m 6,4 km/h (2 Bft)
13.06.2010 09:50 12,8 C 76 % 1016,3 hPa 0,0 mm 1,6 km/h (1 Bft) SW 225 10 min 3 UV-I 401 W/m 6,4 km/h (2 Bft)
13.06.2010 10:00 12,7 C 75 % 1016,7 hPa 0,0 mm 1,6 km/h (1 Bft) W-SW 247 10 min 3 UV-I 464 W/m 8,0 km/h (2 Bft)
13.06.2010 10:10 12,9 C 77 % 1016,8 hPa 0,0 mm 1,6 km/h (1 Bft) W 270 0 min 3 UV-I 341 W/m 8,0 km/h (2 Bft)
13.06.2010 10:20 13,0 C 72 % 1016,5 hPa 0,0 mm 3,2 km/h (1 Bft) W-SW 247 0 min 3 UV-I 323 W/m 8,0 km/h (2 Bft)
13.06.2010 10:30 13,0 C 71 % 1016,5 hPa 0,0 mm 3,2 km/h (1 Bft) W-SW 247 0 min 3 UV-I 316 W/m 11,3 km/h (2 Bft)
13.06.2010 10:40 13,1 C 70 % 1016,6 hPa 0,0 mm 0,0 km/h (0 Bft) W-NW 286 0 min 2 UV-I 260 W/m 0,0 km/h (0 Bft)
13.06.2010 11:20 13,6 C 65 % 1016,5 hPa 0,0 mm 1,4 km/h (1 Bft) W-NW 295 0 min 4 UV-I 377 W/m 6,4 km/h (2 Bft)
13.06.2010 11:30 14,8 C 62 % 1016,5 hPa 0,0 mm 3,6 km/h (1 Bft) W-SW 246 10 min 6 UV-I 910 W/m 14,5 km/h (3 Bft)
13.06.2010 11:40 14,3 C 63 % 1016,6 hPa 0,0 mm 2,8 km/h (1 Bft) W 264 10 min 4 UV-I 457 W/m 8,0 km/h (2 Bft)
13.06.2010 11:50 14,2 C 63 % 1016,5 hPa 0,0 mm 3,7 km/h (1 Bft) NW 311 10 min 5 UV-I 567 W/m 12,9 km/h (3 Bft)
13.06.2010 12:00 14,4 C 62 % 1016,2 hPa 0,0 mm 1,6 km/h (1 Bft) W-SW 253 0 min 4 UV-I 398 W/m 8,0 km/h (2 Bft)
13.06.2010 12:10 15,2 C 63 % 1016,1 hPa 0,0 mm 0,4 km/h (0 Bft) W-SW 248 10 min 5 UV-I 708 W/m 3,2 km/h (1 Bft)
13.06.2010 12:20 14,9 C 62 % 1016,0 hPa 0,0 mm 0,8 km/h (0 Bft) S 186 0 min 3 UV-I 368 W/m 6,4 km/h (2 Bft)
13.06.2010 12:30 14,4 C 60 % 1015,9 hPa 0,0 mm 3,0 km/h (1 Bft) W 273 0 min 3 UV-I 370 W/m 9,7 km/h (2 Bft)
13.06.2010 12:40 14,9 C 61 % 1016,0 hPa 0,0 mm 1,4 km/h (1 Bft) W-SW 238 0 min 3 UV-I 394 W/m 6,4 km/h (2 Bft)
13.06.2010 12:50 15,0 C 62 % 1015,9 hPa 0,0 mm 0,3 km/h (0 Bft) SW 236 0 min 3 UV-I 317 W/m 4,8 km/h (1 Bft)
13.06.2010 13:00 15,0 C 60 % 1015,8 hPa 0,0 mm 0,6 km/h (0 Bft) N-NW 331 0 min 3 UV-I 314 W/m 4,8 km/h (1 Bft)
13.06.2010 13:10 14,8 C 58 % 1015,7 hPa 0,0 mm 1,1 km/h (1 Bft) W-SW 255 0 min 4 UV-I 412 W/m 6,4 km/h (2 Bft)
13.06.2010 13:20 15,3 C 61 % 1015,4 hPa 0,0 mm 1,6 km/h (1 Bft) W-SW 247 10 min 7 UV-I 596 W/m 4,8 km/h (1 Bft)
13.06.2010 13:30 15,7 C 61 % 1015,2 hPa 0,0 mm 1,6 km/h (1 Bft) W-NW 292 10 min 8 UV-I 1310 W/m 8,0 km/h (2 Bft)
13.06.2010 15:20 16,5 C 57 % 1014,9 hPa 0,0 mm 1,4 km/h (1 Bft) N 11 0 min 3 UV-I 414 W/m 8,0 km/h (2 Bft)
13.06.2010 15:30 17,7 C 56 % 1014,8 hPa 0,0 mm 1,0 km/h (0 Bft) SW 234 10 min 4 UV-I 631 W/m 8,0 km/h (2 Bft)
13.06.2010 15:40 17,3 C 53 % 1014,6 hPa 0,0 mm 1,1 km/h (1 Bft) W 281 10 min 4 UV-I 589 W/m 6,4 km/h (2 Bft)
13.06.2010 15:50 17,4 C 54 % 1014,3 hPa 0,0 mm 2,5 km/h (1 Bft) W-SW 254 10 min 4 UV-I 682 W/m 9,7 km/h (2 Bft)
13.06.2010 16:00 18,6 C 52 % 1014,2 hPa 0,0 mm 0,5 km/h (0 Bft) O-SO 117 10 min 4 UV-I 1162 W/m 3,2 km/h (1 Bft)
13.06.2010 16:10 17,8 C 52 % 1014,0 hPa 0,0 mm 3,2 km/h (1 Bft) W-SW 247 10 min 4 UV-I 956 W/m 9,7 km/h (2 Bft)
13.06.2010 16:20 17,4 C 54 % 1013,8 hPa 0,0 mm 3,2 km/h (1 Bft) W 270 10 min 5 UV-I 475 W/m 9,7 km/h (2 Bft)
13.06.2010 16:30 17,0 C 53 % 1013,7 hPa 0,0 mm 1,6 km/h (1 Bft) W 270 10 min 3 UV-I 471 W/m 8,0 km/h (2 Bft)
13.06.2010 16:40 16,7 C 58 % 1013,5 hPa 0,0 mm 1,6 km/h (1 Bft) NW 315 10 min 4 UV-I 819 W/m 6,4 km/h (2 Bft)
13.06.2010 16:50 18,3 C 50 % 1013,4 hPa 0,0 mm 0,0 km/h (0 Bft) NO 45 10 min 4 UV-I 819 W/m 4,8 km/h (1 Bft)
13.06.2010 17:10 18,2 C 51 % 1013,2 hPa 0,0 mm 2,8 km/h (1 Bft) W 275 20 min 3 UV-I 711 W/m 11,3 km/h (2 Bft)
13.06.2010 17:20 18,1 C 54 % 1013,1 hPa 0,0 mm 2,9 km/h (1 Bft) NW 304 10 min 3 UV-I 678 W/m 8,0 km/h (2 Bft)
13.06.2010 17:30 18,2 C 51 % 1012,8 hPa 0,0 mm 1,7 km/h (1 Bft) N-NW 334 10 min 3 UV-I 641 W/m 9,7 km/h (2 Bft)
13.06.2010 17:40 18,8 C 52 % 1012,5 hPa 0,0 mm 2,4 km/h (1 Bft) N 360 10 min 3 UV-I 618 W/m 6,4 km/h (2 Bft)
13.06.2010 17:50 19,5 C 50 % 1012,1 hPa 0,0 mm 2,6 km/h (1 Bft) N-NO 26 10 min 2 UV-I 588 W/m 8,0 km/h (2 Bft)
13.06.2010 18:00 19,2 C 48 % 1012,0 hPa 0,0 mm 1,2 km/h (1 Bft) N-NW 348 10 min 2 UV-I 591 W/m 6,4 km/h (2 Bft)
13.06.2010 18:10 19,2 C 53 % 1011,8 hPa 0,0 mm 1,1 km/h (1 Bft) N-NO 22 10 min 2 UV-I 576 W/m 4,8 km/h (1 Bft)
13.06.2010 18:20 19,6 C 51 % 1011,6 hPa 0,0 mm 1,0 km/h (0 Bft) NO 56 10 min 2 UV-I 513 W/m 4,8 km/h (1 Bft)
13.06.2010 18:30 18,9 C 51 % 1011,4 hPa 0,0 mm 1,0 km/h (0 Bft) NO 40 10 min 2 UV-I 466 W/m 4,8 km/h (1 Bft)
13.06.2010 18:40 19,4 C 46 % 1011,1 hPa 0,0 mm 1,1 km/h (1 Bft) NO 49 10 min 1 UV-I 454 W/m 6,4 km/h (2 Bft)
13.06.2010 18:50 19,3 C 47 % 1011,0 hPa 0,0 mm 1,4 km/h (1 Bft) O-NO 57 10 min 1 UV-I 413 W/m 4,8 km/h (1 Bft)
13.06.2010 19:00 19,6 C 49 % 1010,7 hPa 0,0 mm 1,3 km/h (1 Bft) NO 54 10 min 1 UV-I 372 W/m 6,4 km/h (2 Bft)
13.06.2010 19:10 19,1 C 50 % 1010,5 hPa 0,0 mm 1,3 km/h (1 Bft) NO 53 10 min 1 UV-I 339 W/m 6,4 km/h (2 Bft)
13.06.2010 19:20 18,8 C 48 % 1010,0 hPa 0,0 mm 0,7 km/h (0 Bft) NO 48 10 min 1 UV-I 310 W/m 6,4 km/h (2 Bft)
13.06.2010 19:30 18,6 C 53 % 1009,8 hPa 0,0 mm 0,2 km/h (0 Bft) NO 48 10 min 1 UV-I 280 W/m 3,2 km/h (1 Bft)
13.06.2010 19:40 18,0 C 50 % 1009,6 hPa 0,0 mm 0,6 km/h (0 Bft) NO 46 10 min 1 UV-I 253 W/m 4,8 km/h (1 Bft)
13.06.2010 19:50 18,0 C 52 % 1009,5 hPa 0,0 mm 0,5 km/h (0 Bft) NO 46 10 min 1 UV-I 225 W/m 3,2 km/h (1 Bft)
13.06.2010 20:00 17,7 C 52 % 1009,3 hPa 0,0 mm 0,3 km/h (0 Bft) NO 47 10 min 1 UV-I 167 W/m 3,2 km/h (1 Bft)
13.06.2010 20:10 17,2 C 53 % 1009,4 hPa 0,0 mm 0,6 km/h (0 Bft) N 360 10 min 0 UV-I 139 W/m 6,4 km/h (2 Bft)
13.06.2010 20:20 16,9 C 54 % 1009,3 hPa 0,0 mm 0,1 km/h (0 Bft) N 360 0 min 0 UV-I 67 W/m 1,6 km/h (1 Bft)
13.06.2010 20:30 16,6 C 58 % 1009,3 hPa 0,0 mm 0,1 km/h (0 Bft) N 360 0 min 0 UV-I 30 W/m 3,2 km/h (1 Bft)
13.06.2010 20:40 16,2 C 60 % 1009,3 hPa 0,0 mm 0,3 km/h (0 Bft) N 360 0 min 0 UV-I 22 W/m 3,2 km/h (1 Bft)
13.06.2010 20:50 15,7 C 64 % 1009,4 hPa 0,0 mm 0,2 km/h (0 Bft) N 360 0 min 0 UV-I 16 W/m 3,2 km/h (1 Bft)
13.06.2010 21:00 15,3 C 64 % 1009,4 hPa 0,0 mm 0,9 km/h (0 Bft) N 11 0 min 0 UV-I 12 W/m 4,8 km/h (1 Bft)
13.06.2010 21:10 15,0 C 65 % 1009,2 hPa 0,0 mm 0,6 km/h (0 Bft) N-NO 30 0 min 0 UV-I 9 W/m 6,4 km/h (2 Bft)
13.06.2010 21:20 15,0 C 67 % 1009,3 hPa 0,0 mm 0,2 km/h (0 Bft) N-NO 30 0 min 0 UV-I 7 W/m 3,2 km/h (1 Bft)
13.06.2010 21:30 14,7 C 68 % 1009,4 hPa 0,0 mm 0,1 km/h (0 Bft) N-NO 30 0 min 0 UV-I 4 W/m 3,2 km/h (1 Bft)
13.06.2010 21:40 14,3 C 69 % 1009,4 hPa 0,0 mm 0,0 km/h (0 Bft) N-NO 30 0 min 0 UV-I 0 W/m 1,6 km/h (1 Bft)
13.06.2010 21:50 13,9 C 71 % 1009,6 hPa 0,0 mm 0,0 km/h (0 Bft) N-NO 30 0 min 0 UV-I 0 W/m 1,6 km/h (1 Bft)
13.06.2010 22:00 13,7 C 74 % 1009,6 hPa 0,0 mm 0,0 km/h (0 Bft) N-NO 30 0 min 0 UV-I 0 W/m 0,0 km/h (0 Bft)
13.06.2010 22:10 13,3 C 75 % 1010,0 hPa 0,0 mm 0,0 km/h (0 Bft) N-NO 30 0 min 0 UV-I 0 W/m 1,6 km/h (1 Bft)
13.06.2010 22:20 13,0 C 76 % 1010,2 hPa 0,0 mm 0,1 km/h (0 Bft) N-NO 30 0 min 0 UV-I 0 W/m 3,2 km/h (1 Bft)
13.06.2010 22:30 12,8 C 77 % 1010,3 hPa 0,0 mm 0,3 km/h (0 Bft) N-NO 30 0 min 0 UV-I 0 W/m 3,2 km/h (1 Bft)
13.06.2010 22:40 12,5 C 78 % 1010,4 hPa 0,0 mm 0,0 km/h (0 Bft) N-NO 30 0 min 0 UV-I 0 W/m 1,6 km/h (1 Bft)
13.06.2010 22:50 12,2 C 80 % 1010,6 hPa 0,0 mm 0,0 km/h (0 Bft) N-NO 30 0 min 0 UV-I 0 W/m 0,0 km/h (0 Bft)
13.06.2010 23:00 11,9 C 81 % 1010,7 hPa 0,0 mm 0,1 km/h (0 Bft) N-NO 30 0 min 0 UV-I 0 W/m 3,2 km/h (1 Bft)
13.06.2010 23:10 11,8 C 81 % 1010,8 hPa 0,0 mm 0,2 km/h (0 Bft) N-NO 30 0 min 0 UV-I 0 W/m 3,2 km/h (1 Bft)
13.06.2010 23:20 11,6 C 82 % 1011,0 hPa 0,0 mm 0,0 km/h (0 Bft) N-NO 30 0 min 0 UV-I 0 W/m 1,6 km/h (1 Bft)
13.06.2010 23:30 11,4 C 82 % 1011,1 hPa 0,0 mm 0,0 km/h (0 Bft) N-NO 22 0 min 0 UV-I 0 W/m 1,6 km/h (1 Bft)
13.06.2010 23:40 11,2 C 83 % 1011,2 hPa 0,0 mm 0,0 km/h (0 Bft) N-NO 22 0 min 0 UV-I 0 W/m 4,8 km/h (1 Bft)
13.06.2010 23:50 11,1 C 83 % 1011,2 hPa 0,0 mm 0,0 km/h (0 Bft) N-NO 22 0 min 0 UV-I 0 W/m 1,6 km/h (1 Bft)
_ Min-Zeit 05:00 18:40 21:10 - 00:00 - - - - - 10:40
Minimum _ 7,0 C 46 % 1009,2 hPa - 0,0 km/h (0 Bft) - - - - - 0,0 km/h (0 Bft)
_ Max-Zeit 18:30 07:00 09:20 00:00 11:50 - - 17:10 13:30 13:30 11:30
Maximum _ 19,9 C 96 % 1017,0 hPa 0,0 mm 3,7 km/h
NW (1 Bft)
- - 20 min 8 UV-I 1310 W/m 14,5 km/h
W (3 Bft)
Durchschnitt _ 12,8 C 73 % 1013,8 hPa #0,0 mm 0,7 km/h (0 Bft) W-SW - #7:00 h 2 UV-I 344 W/m 4,3 km/h (1 Bft)